KAPG/APG METAR and TAF weather

Enter ICAO airport designator
Station Type Date Time Source
KAPG METAR 2021/07/24 19:58 UTC NOAA

KAPG 241958Z AUTO 24010KT 10SM CLR 29/18 A3004 RMK AO2 SLP175 T02870178 $


Station Type Date Time Source
KAPG Decoded METAR 2021/07/24 19:58 UTC NOAA

Phillips Army Air Field / Aberdeen, MD, United States (KAPG) 39-28N 076-10W
Jul 24, 2021 - 03:58 PM EDT / 2021.07.24 1958 UTC
Wind: from the WSW (240 degrees) at 12 MPH (10 KT):0
Visibility: 10 mile(s):0
Sky conditions: clear
Temperature: 83.7 F (28.7 C)
Dew Point: 64.0 F (17.8 C)
Relative Humidity: 51%
Pressure (altimeter): 30.04 in. Hg (1017 hPa)
ob: KAPG 241958Z AUTO 24010KT 10SM CLR 29/18 A3004 RMK AO2 SLP175 T02870178
cycle: 20

Station Type Date Time Source
KAPG TAF UTC NOAA

Error!

Example: see airport list